sensor_id;sensor_type;location;lat;lon;timestamp;temperature;humidity
39315;DHT22;28703;44.412;11.918;2023-09-19T00:00:58;24.90;96.40
39315;DHT22;28703;44.412;11.918;2023-09-19T00:03:24;24.90;96.40
39315;DHT22;28703;44.412;11.918;2023-09-19T00:05:54;24.90;96.40
39315;DHT22;28703;44.412;11.918;2023-09-19T00:08:21;24.90;96.50
39315;DHT22;28703;44.412;11.918;2023-09-19T00:10:50;24.90;96.50
39315;DHT22;28703;44.412;11.918;2023-09-19T00:13:16;24.90;96.50
39315;DHT22;28703;44.412;11.918;2023-09-19T00:15:47;24.80;96.50
39315;DHT22;28703;44.412;11.918;2023-09-19T00:18:14;24.80;96.50
39315;DHT22;28703;44.412;11.918;2023-09-19T00:20:41;24.80;96.50
39315;DHT22;28703;44.412;11.918;2023-09-19T00:23:07;24.80;96.50
39315;DHT22;28703;44.412;11.918;2023-09-19T00:25:35;24.80;96.60
39315;DHT22;28703;44.412;11.918;2023-09-19T00:28:20;24.80;96.50
39315;DHT22;28703;44.412;11.918;2023-09-19T00:30:54;24.80;96.60
39315;DHT22;28703;44.412;11.918;2023-09-19T00:33:21;24.80;96.60
39315;DHT22;28703;44.412;11.918;2023-09-19T00:36:06;24.80;96.60
39315;DHT22;28703;44.412;11.918;2023-09-19T00:38:32;24.80;96.60
39315;DHT22;28703;44.412;11.918;2023-09-19T00:40:58;24.90;96.60
39315;DHT22;28703;44.412;11.918;2023-09-19T00:43:43;24.90;96.60
39315;DHT22;28703;44.412;11.918;2023-09-19T00:46:27;24.80;96.60
39315;DHT22;28703;44.412;11.918;2023-09-19T00:48:53;24.80;96.70
39315;DHT22;28703;44.412;11.918;2023-09-19T00:51:39;24.80;96.90
39315;DHT22;28703;44.412;11.918;2023-09-19T00:54:07;24.90;96.60
39315;DHT22;28703;44.412;11.918;2023-09-19T00:56:34;24.90;96.70
39315;DHT22;28703;44.412;11.918;2023-09-19T01:01:45;24.80;96.70
39315;DHT22;28703;44.412;11.918;2023-09-19T01:04:11;24.80;96.70
39315;DHT22;28703;44.412;11.918;2023-09-19T01:06:57;24.80;96.70
39315;DHT22;28703;44.412;11.918;2023-09-19T01:09:26;24.80;96.80
39315;DHT22;28703;44.412;11.918;2023-09-19T01:11:58;24.80;96.80
39315;DHT22;28703;44.412;11.918;2023-09-19T01:14:54;24.80;96.80
39315;DHT22;28703;44.412;11.918;2023-09-19T01:17:46;24.80;96.70
39315;DHT22;28703;44.412;11.918;2023-09-19T01:23:10;24.80;96.90
39315;DHT22;28703;44.412;11.918;2023-09-19T01:26:39;24.80;96.90
39315;DHT22;28703;44.412;11.918;2023-09-19T01:31:59;24.70;97.00
39315;DHT22;28703;44.412;11.918;2023-09-19T01:34:44;24.70;97.10
39315;DHT22;28703;44.412;11.918;2023-09-19T01:37:12;24.70;97.00
39315;DHT22;28703;44.412;11.918;2023-09-19T01:39:37;24.70;97.10
39315;DHT22;28703;44.412;11.918;2023-09-19T01:42:18;24.70;97.10
39315;DHT22;28703;44.412;11.918;2023-09-19T01:47:27;24.70;97.10
39315;DHT22;28703;44.412;11.918;2023-09-19T01:50:21;24.70;97.10
39315;DHT22;28703;44.412;11.918;2023-09-19T01:55:50;24.70;97.20
39315;DHT22;28703;44.412;11.918;2023-09-19T02:01:20;24.60;97.20
39315;DHT22;28703;44.412;11.918;2023-09-19T02:06:51;24.60;97.10
39315;DHT22;28703;44.412;11.918;2023-09-19T02:09:17;24.60;97.10
39315;DHT22;28703;44.412;11.918;2023-09-19T02:11:44;24.50;97.10
39315;DHT22;28703;44.412;11.918;2023-09-19T02:14:28;24.60;97.00
39315;DHT22;28703;44.412;11.918;2023-09-19T02:16:55;24.60;96.90
39315;DHT22;28703;44.412;11.918;2023-09-19T02:19:22;24.60;97.00
39315;DHT22;28703;44.412;11.918;2023-09-19T02:21:49;24.60;97.00
39315;DHT22;28703;44.412;11.918;2023-09-19T02:24:15;24.60;96.90
39315;DHT22;28703;44.412;11.918;2023-09-19T02:26:41;24.60;96.90
39315;DHT22;28703;44.412;11.918;2023-09-19T02:29:27;24.60;96.90
39315;DHT22;28703;44.412;11.918;2023-09-19T02:32:11;24.60;96.70
39315;DHT22;28703;44.412;11.918;2023-09-19T02:37:23;24.70;96.80
39315;DHT22;28703;44.412;11.918;2023-09-19T02:39:49;24.70;96.80
39315;DHT22;28703;44.412;11.918;2023-09-19T02:42:15;24.60;96.70
39315;DHT22;28703;44.412;11.918;2023-09-19T02:44:40;24.70;96.70
39315;DHT22;28703;44.412;11.918;2023-09-19T02:47:25;24.70;96.70
39315;DHT22;28703;44.412;11.918;2023-09-19T02:49:52;24.70;96.50
39315;DHT22;28703;44.412;11.918;2023-09-19T02:52:18;24.70;96.70
39315;DHT22;28703;44.412;11.918;2023-09-19T02:54:43;24.70;96.60
39315;DHT22;28703;44.412;11.918;2023-09-19T02:57:10;24.70;96.60
39315;DHT22;28703;44.412;11.918;2023-09-19T03:02:21;24.70;96.60
39315;DHT22;28703;44.412;11.918;2023-09-19T03:04:50;24.70;96.50
39315;DHT22;28703;44.412;11.918;2023-09-19T03:07:34;24.70;96.50
39315;DHT22;28703;44.412;11.918;2023-09-19T03:10:04;24.70;96.60
39315;DHT22;28703;44.412;11.918;2023-09-19T03:12:31;24.70;96.50
39315;DHT22;28703;44.412;11.918;2023-09-19T03:14:58;24.70;96.50
39315;DHT22;28703;44.412;11.918;2023-09-19T03:17:25;24.60;96.50
39315;DHT22;28703;44.412;11.918;2023-09-19T03:19:51;24.70;96.80
39315;DHT22;28703;44.412;11.918;2023-09-19T03:22:17;24.60;96.50
39315;DHT22;28703;44.412;11.918;2023-09-19T03:24:43;24.60;96.50
39315;DHT22;28703;44.412;11.918;2023-09-19T03:27:10;24.60;96.50
39315;DHT22;28703;44.412;11.918;2023-09-19T03:29:36;24.60;96.50
39315;DHT22;28703;44.412;11.918;2023-09-19T03:32:04;24.60;96.50
39315;DHT22;28703;44.412;11.918;2023-09-19T03:34:30;24.60;96.50
39315;DHT22;28703;44.412;11.918;2023-09-19T03:36:56;24.60;96.50
39315;DHT22;28703;44.412;11.918;2023-09-19T03:39:23;24.50;96.60
39315;DHT22;28703;44.412;11.918;2023-09-19T03:41:48;24.50;96.50
39315;DHT22;28703;44.412;11.918;2023-09-19T03:44:15;24.50;96.60
39315;DHT22;28703;44.412;11.918;2023-09-19T03:46:41;24.60;96.60
39315;DHT22;28703;44.412;11.918;2023-09-19T03:49:07;24.50;96.60
39315;DHT22;28703;44.412;11.918;2023-09-19T03:51:34;24.50;96.60
39315;DHT22;28703;44.412;11.918;2023-09-19T03:54:00;24.50;96.70
39315;DHT22;28703;44.412;11.918;2023-09-19T03:56:26;24.50;96.70
39315;DHT22;28703;44.412;11.918;2023-09-19T03:58:52;24.50;96.70
39315;DHT22;28703;44.412;11.918;2023-09-19T04:01:18;24.40;96.70
39315;DHT22;28703;44.412;11.918;2023-09-19T04:03:44;24.40;96.70
39315;DHT22;28703;44.412;11.918;2023-09-19T04:06:17;24.40;96.80
39315;DHT22;28703;44.412;11.918;2023-09-19T04:08:43;24.40;96.80
39315;DHT22;28703;44.412;11.918;2023-09-19T04:11:11;24.40;96.90
39315;DHT22;28703;44.412;11.918;2023-09-19T04:13:37;24.30;96.90
39315;DHT22;28703;44.412;11.918;2023-09-19T04:16:03;24.30;96.90
39315;DHT22;28703;44.412;11.918;2023-09-19T04:18:47;24.30;97.00
39315;DHT22;28703;44.412;11.918;2023-09-19T04:21:13;24.30;97.10
39315;DHT22;28703;44.412;11.918;2023-09-19T04:23:39;24.20;97.10
39315;DHT22;28703;44.412;11.918;2023-09-19T04:26:05;24.20;97.10
39315;DHT22;28703;44.412;11.918;2023-09-19T04:28:49;24.20;97.10
39315;DHT22;28703;44.412;11.918;2023-09-19T04:31:15;24.20;97.20
39315;DHT22;28703;44.412;11.918;2023-09-19T04:34:01;24.10;97.20
39315;DHT22;28703;44.412;11.918;2023-09-19T04:36:30;24.20;97.30
39315;DHT22;28703;44.412;11.918;2023-09-19T04:38:56;24.10;97.40
39315;DHT22;28703;44.412;11.918;2023-09-19T04:41:40;24.10;97.40
39315;DHT22;28703;44.412;11.918;2023-09-19T04:44:07;24.10;97.40
39315;DHT22;28703;44.412;11.918;2023-09-19T04:46:36;24.00;97.40
39315;DHT22;28703;44.412;11.918;2023-09-19T04:51:47;24.00;97.50
39315;DHT22;28703;44.412;11.918;2023-09-19T04:54:31;24.00;97.70
39315;DHT22;28703;44.412;11.918;2023-09-19T04:56:57;24.00;97.70
39315;DHT22;28703;44.412;11.918;2023-09-19T04:59:22;23.90;97.70
39315;DHT22;28703;44.412;11.918;2023-09-19T05:01:48;23.90;97.80
39315;DHT22;28703;44.412;11.918;2023-09-19T05:04:14;23.90;97.90
39315;DHT22;28703;44.412;11.918;2023-09-19T05:06:40;23.90;98.00
39315;DHT22;28703;44.412;11.918;2023-09-19T05:09:25;23.80;98.00
39315;DHT22;28703;44.412;11.918;2023-09-19T05:11:50;23.80;98.10
39315;DHT22;28703;44.412;11.918;2023-09-19T05:14:18;23.70;98.10
39315;DHT22;28703;44.412;11.918;2023-09-19T05:16:46;23.70;98.10
39315;DHT22;28703;44.412;11.918;2023-09-19T05:19:31;23.70;98.10
39315;DHT22;28703;44.412;11.918;2023-09-19T05:21:57;23.70;98.10
39315;DHT22;28703;44.412;11.918;2023-09-19T05:24:22;23.70;98.20
39315;DHT22;28703;44.412;11.918;2023-09-19T05:27:08;23.70;98.20
39315;DHT22;28703;44.412;11.918;2023-09-19T05:29:33;23.60;98.30
39315;DHT22;28703;44.412;11.918;2023-09-19T05:31:59;23.60;98.40
39315;DHT22;28703;44.412;11.918;2023-09-19T05:34:25;23.60;98.40
39315;DHT22;28703;44.412;11.918;2023-09-19T05:37:14;23.60;98.50
39315;DHT22;28703;44.412;11.918;2023-09-19T05:39:58;23.60;98.50
39315;DHT22;28703;44.412;11.918;2023-09-19T05:42:24;23.50;98.60
39315;DHT22;28703;44.412;11.918;2023-09-19T05:45:09;23.50;98.70
39315;DHT22;28703;44.412;11.918;2023-09-19T05:47:39;23.50;98.80
39315;DHT22;28703;44.412;11.918;2023-09-19T05:50:06;23.50;98.90
39315;DHT22;28703;44.412;11.918;2023-09-19T05:52:35;23.50;99.00
39315;DHT22;28703;44.412;11.918;2023-09-19T05:55:05;23.60;99.10
39315;DHT22;28703;44.412;11.918;2023-09-19T05:57:52;23.50;99.20
39315;DHT22;28703;44.412;11.918;2023-09-19T06:00:19;23.60;99.40
39315;DHT22;28703;44.412;11.918;2023-09-19T06:02:52;23.60;99.50
39315;DHT22;28703;44.412;11.918;2023-09-19T06:05:19;23.60;99.40
39315;DHT22;28703;44.412;11.918;2023-09-19T06:07:45;23.60;99.30
39315;DHT22;28703;44.412;11.918;2023-09-19T06:10:12;23.60;99.20
39315;DHT22;28703;44.412;11.918;2023-09-19T06:12:39;23.70;99.10
39315;DHT22;28703;44.412;11.918;2023-09-19T06:15:06;23.70;99.00
39315;DHT22;28703;44.412;11.918;2023-09-19T06:17:34;23.70;98.80
39315;DHT22;28703;44.412;11.918;2023-09-19T06:22:51;23.80;98.90
39315;DHT22;28703;44.412;11.918;2023-09-19T06:25:17;23.90;99.10
39315;DHT22;28703;44.412;11.918;2023-09-19T06:27:51;23.90;99.10
39315;DHT22;28703;44.412;11.918;2023-09-19T06:30:19;24.00;99.10
39315;DHT22;28703;44.412;11.918;2023-09-19T06:32:45;24.00;99.10
39315;DHT22;28703;44.412;11.918;2023-09-19T06:35:13;24.10;99.00
39315;DHT22;28703;44.412;11.918;2023-09-19T06:37:39;24.10;98.90
39315;DHT22;28703;44.412;11.918;2023-09-19T06:40:25;24.20;98.90
39315;DHT22;28703;44.412;11.918;2023-09-19T06:42:51;24.20;98.60
39315;DHT22;28703;44.412;11.918;2023-09-19T06:45:18;24.20;98.70
39315;DHT22;28703;44.412;11.918;2023-09-19T06:47:49;24.30;98.60
39315;DHT22;28703;44.412;11.918;2023-09-19T06:50:17;24.30;98.60
39315;DHT22;28703;44.412;11.918;2023-09-19T06:52:45;24.40;98.60
39315;DHT22;28703;44.412;11.918;2023-09-19T06:55:13;24.40;98.20
39315;DHT22;28703;44.412;11.918;2023-09-19T06:57:44;24.50;98.30
39315;DHT22;28703;44.412;11.918;2023-09-19T07:00:11;24.50;98.20
39315;DHT22;28703;44.412;11.918;2023-09-19T07:03:04;24.50;98.20
39315;DHT22;28703;44.412;11.918;2023-09-19T07:05:36;24.60;98.00
39315;DHT22;28703;44.412;11.918;2023-09-19T07:08:03;24.60;97.90
39315;DHT22;28703;44.412;11.918;2023-09-19T07:10:30;24.70;97.80
39315;DHT22;28703;44.412;11.918;2023-09-19T07:13:15;24.80;97.70
39315;DHT22;28703;44.412;11.918;2023-09-19T07:15:43;24.80;97.60
39315;DHT22;28703;44.412;11.918;2023-09-19T07:18:16;24.90;97.60
39315;DHT22;28703;44.412;11.918;2023-09-19T07:21:01;24.90;97.40
39315;DHT22;28703;44.412;11.918;2023-09-19T07:23:30;25.00;97.40
39315;DHT22;28703;44.412;11.918;2023-09-19T07:26:01;25.00;97.20
39315;DHT22;28703;44.412;11.918;2023-09-19T07:28:27;25.10;97.10
39315;DHT22;28703;44.412;11.918;2023-09-19T07:30:54;25.10;97.10
39315;DHT22;28703;44.412;11.918;2023-09-19T07:33:20;25.10;97.00
39315;DHT22;28703;44.412;11.918;2023-09-19T07:38:31;25.20;96.10
39315;DHT22;28703;44.412;11.918;2023-09-19T07:41:01;25.30;95.80
39315;DHT22;28703;44.412;11.918;2023-09-19T07:43:28;25.30;95.80
39315;DHT22;28703;44.412;11.918;2023-09-19T07:45:53;25.40;95.80
39315;DHT22;28703;44.412;11.918;2023-09-19T07:48:19;25.40;95.60
39315;DHT22;28703;44.412;11.918;2023-09-19T07:51:05;25.50;95.70
39315;DHT22;28703;44.412;11.918;2023-09-19T07:53:32;25.60;95.20
39315;DHT22;28703;44.412;11.918;2023-09-19T07:56:07;25.60;95.40
39315;DHT22;28703;44.412;11.918;2023-09-19T07:58:33;25.70;95.30
39315;DHT22;28703;44.412;11.918;2023-09-19T08:03:49;25.80;94.80
39315;DHT22;28703;44.412;11.918;2023-09-19T08:06:15;25.90;95.00
39315;DHT22;28703;44.412;11.918;2023-09-19T08:08:42;25.90;94.60
39315;DHT22;28703;44.412;11.918;2023-09-19T08:11:08;26.00;94.60
39315;DHT22;28703;44.412;11.918;2023-09-19T08:13:41;26.00;94.20
39315;DHT22;28703;44.412;11.918;2023-09-19T08:16:12;26.10;94.40
39315;DHT22;28703;44.412;11.918;2023-09-19T08:18:41;26.20;94.30
39315;DHT22;28703;44.412;11.918;2023-09-19T08:21:07;26.20;94.20
39315;DHT22;28703;44.412;11.918;2023-09-19T08:23:36;26.30;94.30
39315;DHT22;28703;44.412;11.918;2023-09-19T08:26:02;26.30;93.80
39315;DHT22;28703;44.412;11.918;2023-09-19T08:31:17;26.40;93.10
39315;DHT22;28703;44.412;11.918;2023-09-19T08:33:43;26.40;93.00
39315;DHT22;28703;44.412;11.918;2023-09-19T08:36:11;26.50;93.00
39315;DHT22;28703;44.412;11.918;2023-09-19T08:38:40;26.50;93.00
39315;DHT22;28703;44.412;11.918;2023-09-19T08:41:24;26.60;92.80
39315;DHT22;28703;44.412;11.918;2023-09-19T08:43:50;26.60;92.90
39315;DHT22;28703;44.412;11.918;2023-09-19T08:46:18;26.60;92.60
39315;DHT22;28703;44.412;11.918;2023-09-19T08:49:05;26.70;92.40
39315;DHT22;28703;44.412;11.918;2023-09-19T08:51:58;26.70;92.20
39315;DHT22;28703;44.412;11.918;2023-09-19T08:54:47;26.80;92.20
39315;DHT22;28703;44.412;11.918;2023-09-19T08:57:16;26.80;92.30
39315;DHT22;28703;44.412;11.918;2023-09-19T08:59:48;26.90;92.10
39315;DHT22;28703;44.412;11.918;2023-09-19T09:02:16;26.90;92.30
39315;DHT22;28703;44.412;11.918;2023-09-19T09:05:02;27.00;92.40
39315;DHT22;28703;44.412;11.918;2023-09-19T09:07:49;27.00;92.20
39315;DHT22;28703;44.412;11.918;2023-09-19T09:10:37;27.00;92.20
39315;DHT22;28703;44.412;11.918;2023-09-19T09:13:21;27.10;92.10
39315;DHT22;28703;44.412;11.918;2023-09-19T09:15:48;27.10;92.30
39315;DHT22;28703;44.412;11.918;2023-09-19T09:18:14;27.20;92.20
39315;DHT22;28703;44.412;11.918;2023-09-19T09:20:40;27.20;92.00
39315;DHT22;28703;44.412;11.918;2023-09-19T09:23:07;27.20;92.10
39315;DHT22;28703;44.412;11.918;2023-09-19T09:25:52;27.30;92.00
39315;DHT22;28703;44.412;11.918;2023-09-19T09:28:35;27.30;92.00
39315;DHT22;28703;44.412;11.918;2023-09-19T09:31:03;27.30;92.30
39315;DHT22;28703;44.412;11.918;2023-09-19T09:33:33;27.30;92.10
39315;DHT22;28703;44.412;11.918;2023-09-19T09:36:00;27.40;92.40
39315;DHT22;28703;44.412;11.918;2023-09-19T09:38:42;27.40;92.30
39315;DHT22;28703;44.412;11.918;2023-09-19T09:41:09;27.40;92.20
39315;DHT22;28703;44.412;11.918;2023-09-19T09:43:39;27.40;92.20
39315;DHT22;28703;44.412;11.918;2023-09-19T09:46:25;27.50;92.40
39315;DHT22;28703;44.412;11.918;2023-09-19T09:51:39;27.50;92.30
39315;DHT22;28703;44.412;11.918;2023-09-19T09:54:16;27.50;92.20
39315;DHT22;28703;44.412;11.918;2023-09-19T09:56:57;27.60;91.90
39315;DHT22;28703;44.412;11.918;2023-09-19T09:59:50;27.60;92.10
39315;DHT22;28703;44.412;11.918;2023-09-19T10:02:18;27.70;92.00
39315;DHT22;28703;44.412;11.918;2023-09-19T10:04:56;27.60;92.00
39315;DHT22;28703;44.412;11.918;2023-09-19T10:07:41;27.60;92.00
39315;DHT22;28703;44.412;11.918;2023-09-19T10:10:15;27.60;91.90
39315;DHT22;28703;44.412;11.918;2023-09-19T10:12:55;27.70;91.80
39315;DHT22;28703;44.412;11.918;2023-09-19T10:15:44;27.70;91.70
39315;DHT22;28703;44.412;11.918;2023-09-19T10:18:41;27.70;91.60
39315;DHT22;28703;44.412;11.918;2023-09-19T10:23:58;27.80;91.60
39315;DHT22;28703;44.412;11.918;2023-09-19T10:26:28;27.80;91.60
39315;DHT22;28703;44.412;11.918;2023-09-19T10:28:57;27.80;91.60
39315;DHT22;28703;44.412;11.918;2023-09-19T10:31:27;27.90;91.60
39315;DHT22;28703;44.412;11.918;2023-09-19T10:36:45;28.00;91.40
39315;DHT22;28703;44.412;11.918;2023-09-19T10:39:16;27.90;91.30
39315;DHT22;28703;44.412;11.918;2023-09-19T10:41:53;28.00;91.40
39315;DHT22;28703;44.412;11.918;2023-09-19T10:44:24;28.10;91.30
39315;DHT22;28703;44.412;11.918;2023-09-19T10:46:52;28.10;91.40
39315;DHT22;28703;44.412;11.918;2023-09-19T10:49:20;28.10;91.50
39315;DHT22;28703;44.412;11.918;2023-09-19T10:51:50;28.20;91.60
39315;DHT22;28703;44.412;11.918;2023-09-19T10:57:09;28.30;91.50
39315;DHT22;28703;44.412;11.918;2023-09-19T10:59:35;28.30;91.30
39315;DHT22;28703;44.412;11.918;2023-09-19T11:02:16;28.40;91.40
39315;DHT22;28703;44.412;11.918;2023-09-19T11:05:12;28.50;91.20
39315;DHT22;28703;44.412;11.918;2023-09-19T11:08:11;28.50;91.30
39315;DHT22;28703;44.412;11.918;2023-09-19T11:10:45;28.60;91.20
39315;DHT22;28703;44.412;11.918;2023-09-19T11:13:28;28.60;91.10
39315;DHT22;28703;44.412;11.918;2023-09-19T11:27:29;28.80;90.90
39315;DHT22;28703;44.412;11.918;2023-09-19T11:30:26;28.90;90.90
39315;DHT22;28703;44.412;11.918;2023-09-19T11:33:21;28.90;90.70
39315;DHT22;28703;44.412;11.918;2023-09-19T11:36:12;29.00;90.50
39315;DHT22;28703;44.412;11.918;2023-09-19T11:43:51;29.10;90.60
39315;DHT22;28703;44.412;11.918;2023-09-19T11:46:18;29.20;90.60
39315;DHT22;28703;44.412;11.918;2023-09-19T11:48:50;29.30;90.40
39315;DHT22;28703;44.412;11.918;2023-09-19T11:51:21;29.30;90.50
39315;DHT22;28703;44.412;11.918;2023-09-19T11:54:12;29.40;90.20
39315;DHT22;28703;44.412;11.918;2023-09-19T11:59:47;29.50;90.10
39315;DHT22;28703;44.412;11.918;2023-09-19T12:02:19;29.50;89.90
39315;DHT22;28703;44.412;11.918;2023-09-19T12:05:13;29.50;89.60
39315;DHT22;28703;44.412;11.918;2023-09-19T12:07:43;29.50;89.10
39315;DHT22;28703;44.412;11.918;2023-09-19T12:10:11;29.40;89.50
39315;DHT22;28703;44.412;11.918;2023-09-19T12:12:40;29.40;89.60
39315;DHT22;28703;44.412;11.918;2023-09-19T12:15:08;29.40;89.90
39315;DHT22;28703;44.412;11.918;2023-09-19T12:17:37;29.50;90.20
39315;DHT22;28703;44.412;11.918;2023-09-19T12:20:05;29.60;90.30
39315;DHT22;28703;44.412;11.918;2023-09-19T12:22:44;29.80;90.10
39315;DHT22;28703;44.412;11.918;2023-09-19T12:25:12;29.90;90.10
39315;DHT22;28703;44.412;11.918;2023-09-19T12:27:58;30.00;90.40
39315;DHT22;28703;44.412;11.918;2023-09-19T12:30:28;30.10;88.60
39315;DHT22;28703;44.412;11.918;2023-09-19T12:32:58;30.20;88.90
39315;DHT22;28703;44.412;11.918;2023-09-19T12:35:45;30.20;88.50
39315;DHT22;28703;44.412;11.918;2023-09-19T12:38:11;30.30;87.60
39315;DHT22;28703;44.412;11.918;2023-09-19T12:40:39;30.30;86.90
39315;DHT22;28703;44.412;11.918;2023-09-19T12:43:08;30.40;86.60
39315;DHT22;28703;44.412;11.918;2023-09-19T12:45:35;30.50;86.40
39315;DHT22;28703;44.412;11.918;2023-09-19T12:48:21;30.60;85.70
39315;DHT22;28703;44.412;11.918;2023-09-19T12:51:11;30.70;85.80
39315;DHT22;28703;44.412;11.918;2023-09-19T12:53:43;30.90;85.40
39315;DHT22;28703;44.412;11.918;2023-09-19T12:56:14;30.90;85.40
39315;DHT22;28703;44.412;11.918;2023-09-19T12:58:56;31.00;85.40
39315;DHT22;28703;44.412;11.918;2023-09-19T13:01:25;31.10;84.50
39315;DHT22;28703;44.412;11.918;2023-09-19T13:04:21;31.20;85.00
39315;DHT22;28703;44.412;11.918;2023-09-19T13:06:55;31.30;82.60
39315;DHT22;28703;44.412;11.918;2023-09-19T13:09:27;31.20;84.20
39315;DHT22;28703;44.412;11.918;2023-09-19T13:12:35;31.30;84.00
39315;DHT22;28703;44.412;11.918;2023-09-19T13:15:10;31.40;84.90
39315;DHT22;28703;44.412;11.918;2023-09-19T13:20:31;31.20;86.30
39315;DHT22;28703;44.412;11.918;2023-09-19T13:23:05;31.20;86.70
39315;DHT22;28703;44.412;11.918;2023-09-19T13:25:37;31.10;86.60
39315;DHT22;28703;44.412;11.918;2023-09-19T13:28:05;31.10;86.60
39315;DHT22;28703;44.412;11.918;2023-09-19T13:30:31;31.00;86.80
39315;DHT22;28703;44.412;11.918;2023-09-19T13:33:09;30.90;86.80
39315;DHT22;28703;44.412;11.918;2023-09-19T13:35:38;30.80;86.80
39315;DHT22;28703;44.412;11.918;2023-09-19T13:38:06;30.80;87.10
39315;DHT22;28703;44.412;11.918;2023-09-19T13:41:10;30.70;87.20
39315;DHT22;28703;44.412;11.918;2023-09-19T13:43:39;30.60;87.50
39315;DHT22;28703;44.412;11.918;2023-09-19T13:46:05;30.50;87.60
39315;DHT22;28703;44.412;11.918;2023-09-19T13:48:33;30.50;88.00
39315;DHT22;28703;44.412;11.918;2023-09-19T13:51:02;30.50;88.50
39315;DHT22;28703;44.412;11.918;2023-09-19T13:53:29;30.50;88.60
39315;DHT22;28703;44.412;11.918;2023-09-19T13:55:55;30.50;88.50
39315;DHT22;28703;44.412;11.918;2023-09-19T13:58:21;30.50;88.50
39315;DHT22;28703;44.412;11.918;2023-09-19T14:00:48;30.50;88.40
39315;DHT22;28703;44.412;11.918;2023-09-19T14:03:14;30.50;88.50
39315;DHT22;28703;44.412;11.918;2023-09-19T14:05:40;30.40;88.30
39315;DHT22;28703;44.412;11.918;2023-09-19T14:08:08;30.40;88.20
39315;DHT22;28703;44.412;11.918;2023-09-19T14:10:34;30.30;88.20
39315;DHT22;28703;44.412;11.918;2023-09-19T14:13:19;30.20;88.20
39315;DHT22;28703;44.412;11.918;2023-09-19T14:15:46;30.20;87.70
39315;DHT22;28703;44.412;11.918;2023-09-19T14:18:31;30.10;88.10
39315;DHT22;28703;44.412;11.918;2023-09-19T14:20:57;30.10;88.10
39315;DHT22;28703;44.412;11.918;2023-09-19T14:23:23;30.00;88.50
39315;DHT22;28703;44.412;11.918;2023-09-19T14:26:08;30.00;88.50
39315;DHT22;28703;44.412;11.918;2023-09-19T14:28:35;30.00;88.50
39315;DHT22;28703;44.412;11.918;2023-09-19T14:31:10;30.00;88.60
39315;DHT22;28703;44.412;11.918;2023-09-19T14:33:37;30.00;88.50
39315;DHT22;28703;44.412;11.918;2023-09-19T14:36:08;29.90;88.80
39315;DHT22;28703;44.412;11.918;2023-09-19T14:38:37;29.90;88.80
39315;DHT22;28703;44.412;11.918;2023-09-19T14:41:04;29.90;88.80
39315;DHT22;28703;44.412;11.918;2023-09-19T14:43:30;29.90;89.10
39315;DHT22;28703;44.412;11.918;2023-09-19T14:46:14;29.90;89.30
39315;DHT22;28703;44.412;11.918;2023-09-19T14:48:40;29.90;89.30
39315;DHT22;28703;44.412;11.918;2023-09-19T14:51:07;29.90;89.60
39315;DHT22;28703;44.412;11.918;2023-09-19T14:53:51;29.90;89.50
39315;DHT22;28703;44.412;11.918;2023-09-19T14:56:18;29.80;89.30
39315;DHT22;28703;44.412;11.918;2023-09-19T14:58:45;29.70;89.30
39315;DHT22;28703;44.412;11.918;2023-09-19T15:03:58;29.70;89.20
39315;DHT22;28703;44.412;11.918;2023-09-19T15:06:25;29.70;89.40
39315;DHT22;28703;44.412;11.918;2023-09-19T15:08:52;29.70;89.50
39315;DHT22;28703;44.412;11.918;2023-09-19T15:11:18;29.80;89.60
39315;DHT22;28703;44.412;11.918;2023-09-19T15:13:46;30.00;89.60
39315;DHT22;28703;44.412;11.918;2023-09-19T15:16:31;30.30;89.40
39315;DHT22;28703;44.412;11.918;2023-09-19T15:18:58;30.70;89.40
39315;DHT22;28703;44.412;11.918;2023-09-19T15:21:23;31.10;88.80
39315;DHT22;28703;44.412;11.918;2023-09-19T15:23:50;31.60;88.00
39315;DHT22;28703;44.412;11.918;2023-09-19T15:26:15;32.10;87.30
39315;DHT22;28703;44.412;11.918;2023-09-19T15:28:46;32.60;86.20
39315;DHT22;28703;44.412;11.918;2023-09-19T15:31:12;33.10;85.50
39315;DHT22;28703;44.412;11.918;2023-09-19T15:33:39;33.60;84.80
39315;DHT22;28703;44.412;11.918;2023-09-19T15:38:31;34.40;82.90
39315;DHT22;28703;44.412;11.918;2023-09-19T15:41:16;34.90;82.30
39315;DHT22;28703;44.412;11.918;2023-09-19T15:44:01;35.40;79.50
39315;DHT22;28703;44.412;11.918;2023-09-19T15:46:29;35.90;78.60
39315;DHT22;28703;44.412;11.918;2023-09-19T15:48:57;36.30;80.50
39315;DHT22;28703;44.412;11.918;2023-09-19T15:51:23;36.80;79.00
39315;DHT22;28703;44.412;11.918;2023-09-19T15:54:10;37.40;78.30
39315;DHT22;28703;44.412;11.918;2023-09-19T15:56:36;37.90;77.60
39315;DHT22;28703;44.412;11.918;2023-09-19T15:59:02;38.40;76.60
39315;DHT22;28703;44.412;11.918;2023-09-19T16:01:29;38.80;76.00
39315;DHT22;28703;44.412;11.918;2023-09-19T16:03:55;39.10;75.30
39315;DHT22;28703;44.412;11.918;2023-09-19T16:06:26;39.50;74.70
39315;DHT22;28703;44.412;11.918;2023-09-19T16:11:56;40.00;71.50
39315;DHT22;28703;44.412;11.918;2023-09-19T16:14:21;39.90;72.60
39315;DHT22;28703;44.412;11.918;2023-09-19T16:16:47;40.00;72.20
39315;DHT22;28703;44.412;11.918;2023-09-19T16:19:13;40.20;71.90
39315;DHT22;28703;44.412;11.918;2023-09-19T16:21:39;40.20;71.40
39315;DHT22;28703;44.412;11.918;2023-09-19T16:24:09;40.00;71.10
39315;DHT22;28703;44.412;11.918;2023-09-19T16:26:37;39.50;70.20
39315;DHT22;28703;44.412;11.918;2023-09-19T16:29:02;39.00;71.10
39315;DHT22;28703;44.412;11.918;2023-09-19T16:31:29;38.60;70.90
39315;DHT22;28703;44.412;11.918;2023-09-19T16:33:56;38.10;70.80
39315;DHT22;28703;44.412;11.918;2023-09-19T16:36:25;37.60;70.90
39315;DHT22;28703;44.412;11.918;2023-09-19T16:38:51;37.10;71.00
39315;DHT22;28703;44.412;11.918;2023-09-19T16:41:54;36.60;71.20
39315;DHT22;28703;44.412;11.918;2023-09-19T16:44:19;36.00;71.70
39315;DHT22;28703;44.412;11.918;2023-09-19T16:46:46;35.50;71.40
39315;DHT22;28703;44.412;11.918;2023-09-19T16:49:12;35.10;71.40
39315;DHT22;28703;44.412;11.918;2023-09-19T16:51:38;34.70;71.30
39315;DHT22;28703;44.412;11.918;2023-09-19T16:54:06;34.30;70.80
39315;DHT22;28703;44.412;11.918;2023-09-19T16:56:51;33.90;70.20
39315;DHT22;28703;44.412;11.918;2023-09-19T17:02:20;33.30;70.80
39315;DHT22;28703;44.412;11.918;2023-09-19T17:04:46;32.90;71.00
39315;DHT22;28703;44.412;11.918;2023-09-19T17:07:12;32.60;70.60
39315;DHT22;28703;44.412;11.918;2023-09-19T17:09:37;32.40;71.30